Time;durP1;ratioP1;P1;durP2;ratioP2;P2;SDS_P1;SDS_P2;PMS_P1;PMS_P2;Temp;Humidity;BMP_temperature;BMP_pressure;BME280_temperature;BME280_humidity;BME280_pressure;Samples;Min_cycle;Max_cycle;Signal;HPM_P1;HPM_P2
2021/01/18 00:00:52;;;;;;;97.57;40.35;;;;;;;-10.44;100.00;99463.47;2076834;28;20270;-80
2021/01/18 00:01:53;;;;;;;90.30;39.93;;;;;;;-10.45;99.94;99463.63;2079340;28;20223;-81
2021/01/18 00:02:55;;;;;;;98.03;40.53;;;;;;;-10.64;100.00;99438.84;2080177;28;20619;-81
2021/01/18 00:03:55;;;;;;;95.32;40.35;;;;;;;-10.51;100.00;99472.78;2079821;28;20598;-81
2021/01/18 00:04:57;;;;;;;95.13;42.37;;;;;;;-10.56;100.00;99462.13;2079728;28;20258;-81
2021/01/18 00:05:58;;;;;;;92.15;41.92;;;;;;;-10.58;100.00;99453.72;2079428;28;20231;-81
2021/01/18 00:07:04;;;;;;;95.90;40.70;;;;;;;-10.62;100.00;99462.72;2079512;28;20230;-81
2021/01/18 00:08:05;;;;;;;96.80;43.13;;;;;;;-10.79;100.00;99445.50;2079557;28;20306;-81
2021/01/18 00:09:06;;;;;;;100.68;43.53;;;;;;;-10.65;100.00;99463.00;2071177;28;20244;-81
2021/01/18 00:10:09;;;;;;;98.57;43.28;;;;;;;-10.80;100.00;99438.75;2073017;28;20322;-81
2021/01/18 00:11:11;;;;;;;91.60;41.05;;;;;;;-10.61;100.00;99465.13;2076453;28;20232;-81
2021/01/18 00:12:12;;;;;;;102.00;43.38;;;;;;;-10.66;100.00;99469.94;2079204;28;20596;-81
2021/01/18 00:13:13;;;;;;;101.23;43.70;;;;;;;-10.62;100.00;99460.13;2079884;28;20223;-81
2021/01/18 00:14:14;;;;;;;96.97;41.92;;;;;;;-10.73;100.00;99450.06;2079206;28;20726;-81
2021/01/18 00:15:17;;;;;;;93.73;42.17;;;;;;;-10.62;100.00;99462.72;2079687;28;20611;-81
2021/01/18 00:16:19;;;;;;;100.43;40.47;;;;;;;-10.54;100.00;99473.06;2079345;28;20315;-81
2021/01/18 00:17:21;;;;;;;105.57;42.63;;;;;;;-10.69;100.00;99448.78;2080869;28;20724;-81
2021/01/18 00:18:21;;;;;;;89.43;39.60;;;;;;;-10.51;100.00;99477.94;2080617;28;20356;-81
2021/01/18 00:19:23;;;;;;;95.00;41.73;;;;;;;-10.53;100.00;99466.97;2072395;28;20232;-80
2021/01/18 00:20:24;;;;;;;120.53;43.30;;;;;;;-10.61;100.00;99454.81;2081003;28;20246;-81
2021/01/18 00:21:25;;;;;;;100.03;42.25;;;;;;;-10.61;100.00;99459.97;2080595;28;20229;-81
2021/01/18 00:22:27;;;;;;;93.53;42.45;;;;;;;-10.60;100.00;99463.34;2080799;28;20227;-81
2021/01/18 00:23:28;;;;;;;101.20;41.58;;;;;;;-10.63;100.00;99474.78;2080812;28;20694;-81
2021/01/18 00:24:29;;;;;;;93.95;42.47;;;;;;;-10.66;100.00;99482.03;2080532;28;20223;-81
2021/01/18 00:25:31;;;;;;;100.87;43.13;;;;;;;-10.81;100.00;99460.31;2080550;28;20227;-81
2021/01/18 00:26:31;;;;;;;108.47;43.15;;;;;;;-10.71;100.00;99479.06;2081042;28;21002;-80
2021/01/18 00:27:33;;;;;;;97.93;42.00;;;;;;;-10.64;100.00;99480.91;2081304;28;20609;-81
2021/01/18 00:28:34;;;;;;;101.32;41.75;;;;;;;-10.68;100.00;99477.03;2081788;28;20289;-81
2021/01/18 00:29:35;;;;;;;99.72;44.63;;;;;;;-10.73;100.00;99474.06;2080531;28;20262;-81
2021/01/18 00:30:36;;;;;;;95.85;44.17;;;;;;;-10.63;100.00;99473.97;2072576;28;20351;-81
2021/01/18 00:31:42;;;;;;;107.95;42.95;;;;;;;-10.58;100.00;99477.75;2080266;28;20277;-80
2021/01/18 00:32:43;;;;;;;99.93;42.03;;;;;;;-10.59;100.00;99473.53;2080503;28;20239;-80
2021/01/18 00:33:44;;;;;;;110.25;46.50;;;;;;;-10.69;100.00;99472.00;2081038;28;20219;-82
2021/01/18 00:34:45;;;;;;;103.00;42.25;;;;;;;-10.65;100.00;99489.59;2081571;28;20276;-81
2021/01/18 00:35:46;;;;;;;112.40;45.13;;;;;;;-10.62;100.00;99478.16;2080527;28;20228;-80
2021/01/18 00:36:48;;;;;;;110.13;44.35;;;;;;;-10.62;100.00;99480.75;2072816;28;20232;-80
2021/01/18 00:37:51;;;;;;;106.25;44.40;;;;;;;-10.73;100.00;99466.34;2072769;28;20350;-81
2021/01/18 00:38:51;;;;;;;107.30;44.95;;;;;;;-10.62;100.00;99483.31;2076247;28;20304;-80
2021/01/18 00:39:53;;;;;;;112.33;46.07;;;;;;;-10.71;100.00;99471.34;2079411;28;20234;-80
2021/01/18 00:40:54;;;;;;;118.82;48.10;;;;;;;-10.76;100.00;99471.81;2081319;28;20757;-81
2021/01/18 00:41:55;;;;;;;103.53;45.73;;;;;;;-10.82;100.00;99471.59;2081393;28;20595;-80
2021/01/18 00:42:56;;;;;;;113.00;45.03;;;;;;;-10.71;100.00;99485.03;2080529;28;20310;-80
2021/01/18 00:43:57;;;;;;;113.93;45.27;;;;;;;-10.72;100.00;99488.56;2072645;28;20231;-80
2021/01/18 00:44:58;;;;;;;110.93;44.17;;;;;;;-10.69;100.00;99490.03;2072339;28;20706;-81
2021/01/18 00:46:00;;;;;;;114.27;45.50;;;;;;;-10.71;100.00;99473.91;2072353;28;20735;-82
2021/01/18 00:47:01;;;;;;;111.40;46.88;;;;;;;-10.74;100.00;99476.81;2079907;28;20222;-80
2021/01/18 00:48:02;;;;;;;104.43;44.57;;;;;;;-10.64;100.00;99490.41;2072428;28;20737;-81
2021/01/18 00:49:03;;;;;;;113.03;47.53;;;;;;;-10.66;100.00;99497.50;2080689;28;20465;-79
2021/01/18 00:50:06;;;;;;;123.30;46.40;;;;;;;-10.64;100.00;99496.38;2080807;28;20701;-82
2021/01/18 00:51:07;;;;;;;121.85;47.70;;;;;;;-10.61;100.00;99495.25;2079939;28;20241;-80
2021/01/18 00:52:12;;;;;;;125.77;49.67;;;;;;;-10.69;100.00;99492.63;2080796;28;20223;-80
2021/01/18 00:53:14;;;;;;;123.32;51.47;;;;;;;-10.77;100.00;99495.13;2080450;28;20227;-81
2021/01/18 00:54:18;;;;;;;124.55;49.33;;;;;;;-10.84;100.00;99485.44;2080486;28;20247;-80
2021/01/18 00:55:29;;;;;;;127.68;47.17;;;;;;;-10.74;100.00;99494.84;2088577;28;20219;-81
2021/01/18 00:56:56;;;;;;;120.45;46.70;;;;;;;-10.81;100.00;99483.50;2068602;28;20228;-81
2021/01/18 00:58:12;;;;;;;125.80;46.33;;;;;;;-10.77;100.00;99482.22;2071857;28;20298;-81
2021/01/18 00:59:15;;;;;;;124.88;48.38;;;;;;;-10.73;100.00;99476.66;2077909;28;20215;-80
2021/01/18 01:00:22;;;;;;;125.72;49.22;;;;;;;-10.68;100.00;99489.09;2080658;28;20306;-80
2021/01/18 01:01:24;;;;;;;133.77;50.15;;;;;;;-10.69;100.00;99482.31;2071810;28;20769;-80
2021/01/18 01:02:26;;;;;;;133.98;49.17;;;;;;;-10.66;100.00;99492.34;2072587;28;20220;-81
2021/01/18 01:03:27;;;;;;;120.07;48.00;;;;;;;-10.67;100.00;99488.13;2080543;28;20235;-80
2021/01/18 01:04:28;;;;;;;133.07;49.90;;;;;;;-10.72;100.00;99485.19;2080542;28;20303;-80
2021/01/18 01:05:29;;;;;;;115.93;47.43;;;;;;;-10.75;100.00;99472.59;2081774;28;20227;-81
2021/01/18 01:06:32;;;;;;;127.18;49.28;;;;;;;-10.68;100.00;99476.22;2081255;28;20223;-81
2021/01/18 01:07:38;;;;;;;119.00;49.58;;;;;;;-10.81;100.00;99463.69;2081631;28;20273;-81
2021/01/18 01:08:40;;;;;;;119.30;49.28;;;;;;;-10.65;100.00;99491.38;2078694;28;20307;-80
2021/01/18 01:09:41;;;;;;;127.70;48.75;;;;;;;-10.69;100.00;99498.56;2080364;28;20745;-81
2021/01/18 01:10:42;;;;;;;130.48;50.33;;;;;;;-10.69;100.00;99500.34;2080797;28;20285;-80
2021/01/18 01:11:44;;;;;;;115.70;48.47;;;;;;;-10.71;100.00;99485.03;2081248;28;20235;-80
2021/01/18 01:12:45;;;;;;;130.98;49.75;;;;;;;-10.72;100.00;99493.72;2081521;28;20282;-80
2021/01/18 01:13:46;;;;;;;127.22;48.15;;;;;;;-10.68;100.00;99495.06;2080440;28;20212;-80
2021/01/18 01:14:48;;;;;;;122.15;46.72;;;;;;;-10.63;100.00;99494.59;2079857;28;20223;-80
2021/01/18 01:15:49;;;;;;;126.07;51.45;;;;;;;-10.61;100.00;99498.63;2080777;28;20310;-80
2021/01/18 01:16:50;;;;;;;141.98;52.85;;;;;;;-10.66;100.00;99494.91;2080291;28;20250;-80
2021/01/18 01:17:52;;;;;;;130.03;50.83;;;;;;;-10.69;100.00;99497.75;2080820;28;20223;-80
2021/01/18 01:18:53;;;;;;;138.40;50.85;;;;;;;-10.63;100.00;99492.84;2080897;28;20231;-80
2021/01/18 01:19:54;;;;;;;135.80;52.10;;;;;;;-10.64;100.00;99490.41;2080133;28;20231;-80
2021/01/18 01:20:55;;;;;;;137.93;51.95;;;;;;;-10.64;100.00;99496.38;2080236;28;20477;-80
2021/01/18 01:21:56;;;;;;;145.60;53.33;;;;;;;-10.69;100.00;99488.25;2080125;28;20310;-80
2021/01/18 01:22:57;;;;;;;135.50;52.60;;;;;;;-10.70;100.00;99496.16;2088410;28;20249;-80
2021/01/18 01:23:59;;;;;;;133.40;52.47;;;;;;;-10.74;100.00;99500.00;2088786;28;20226;-80
2021/01/18 01:25:00;;;;;;;127.43;50.97;;;;;;;-10.82;100.00;99485.28;2081050;28;20526;-80
2021/01/18 01:26:01;;;;;;;144.87;54.00;;;;;;;-10.84;100.00;99485.44;2080978;28;20219;-80
2021/01/18 01:27:02;;;;;;;132.38;53.47;;;;;;;-10.71;100.00;99499.69;2080259;28;20299;-80
2021/01/18 01:28:04;;;;;;;135.25;52.38;;;;;;;-10.71;100.00;99499.69;2081341;28;20227;-80
2021/01/18 01:29:05;;;;;;;145.30;55.78;;;;;;;-10.74;100.00;99484.53;2081112;28;20230;-80
2021/01/18 01:30:08;;;;;;;141.13;53.90;;;;;;;-10.80;100.00;99478.19;2080858;28;20219;-80
2021/01/18 01:31:09;;;;;;;157.00;54.50;;;;;;;-10.68;100.00;99484.75;2079682;28;20278;-80
2021/01/18 01:32:11;;;;;;;139.20;49.33;;;;;;;-10.64;100.00;99490.41;2080494;28;20314;-81
2021/01/18 01:33:11;;;;;;;146.02;53.78;;;;;;;-10.60;100.00;99486.56;2079973;28;21168;-80
2021/01/18 01:34:13;;;;;;;142.83;53.27;;;;;;;-10.62;100.00;99480.75;2071952;28;20254;-80
2021/01/18 01:35:15;;;;;;;139.10;53.83;;;;;;;-10.69;100.00;99477.94;2080162;28;20250;-81
2021/01/18 01:36:19;;;;;;;152.48;53.47;;;;;;;-10.75;100.00;99473.41;2080301;28;20237;-81
2021/01/18 01:37:20;;;;;;;123.15;49.05;;;;;;;-10.70;100.00;99475.53;2079897;28;20604;-80
2021/01/18 01:38:21;;;;;;;149.13;53.97;;;;;;;-10.62;100.00;99491.88;2080295;28;20227;-80
2021/01/18 01:39:23;;;;;;;149.95;51.13;;;;;;;-10.64;100.00;99491.22;2079831;28;20702;-80
2021/01/18 01:40:25;;;;;;;143.23;51.88;;;;;;;-10.74;100.00;99466.50;2080216;28;20277;-80
2021/01/18 01:41:26;;;;;;;146.75;53.17;;;;;;;-10.62;100.00;99489.28;2080047;28;20233;-81
2021/01/18 01:42:27;;;;;;;156.43;54.27;;;;;;;-10.67;100.00;99482.97;2080107;28;20235;-80
2021/01/18 01:43:28;;;;;;;156.15;53.83;;;;;;;-10.84;100.00;99459.66;2080360;28;20231;-80
2021/01/18 01:44:29;;;;;;;147.07;53.07;;;;;;;-10.69;100.00;99488.25;2080153;28;20219;-81
2021/01/18 01:45:30;;;;;;;149.52;53.72;;;;;;;-10.67;100.00;99490.72;2079763;28;20229;-80
2021/01/18 01:46:31;;;;;;;141.63;53.50;;;;;;;-10.67;100.00;99485.56;2080139;28;20232;-80
2021/01/18 01:47:35;;;;;;;145.15;53.42;;;;;;;-10.66;100.00;99495.72;2080246;28;20592;-80
2021/01/18 01:48:37;;;;;;;149.18;56.50;;;;;;;-10.67;100.00;99494.09;2072395;28;20263;-80
2021/01/18 01:49:38;;;;;;;153.10;52.97;;;;;;;-10.78;100.00;99483.19;2065258;28;20255;-80
2021/01/18 01:50:41;;;;;;;148.43;55.77;;;;;;;-10.76;100.00;99499.34;2076366;28;20307;-80
2021/01/18 01:51:42;;;;;;;156.63;54.42;;;;;;;-10.80;100.00;99498.81;2080075;28;20258;-80
2021/01/18 01:52:47;;;;;;;142.65;53.03;;;;;;;-10.77;100.00;99502.84;2080341;28;20227;-80
2021/01/18 01:53:49;;;;;;;148.38;53.45;;;;;;;-10.72;100.00;99498.06;2080137;28;20276;-80
2021/01/18 01:54:52;;;;;;;142.85;52.05;;;;;;;-10.71;100.00;99500.50;2080391;28;20223;-80
2021/01/18 01:55:53;;;;;;;139.02;54.13;;;;;;;-10.75;100.00;99499.19;2079487;28;20259;-79
2021/01/18 01:56:55;;;;;;;143.75;52.40;;;;;;;-10.79;100.00;99505.59;2080104;28;20231;-80
2021/01/18 01:57:58;;;;;;;141.60;54.92;;;;;;;-10.86;100.00;99489.94;2080361;28;20342;-80
2021/01/18 01:59:00;;;;;;;136.80;53.38;;;;;;;-10.86;100.00;99486.50;2080153;28;20223;-80
2021/01/18 02:00:00;;;;;;;152.65;55.17;;;;;;;-10.98;100.00;99470.47;2080911;28;20345;-80
2021/01/18 02:01:04;;;;;;;140.40;52.10;;;;;;;-10.77;100.00;99506.25;2079866;28;20244;-80
2021/01/18 02:02:05;;;;;;;148.30;54.55;;;;;;;-10.82;100.00;99494.78;2072150;28;20259;-79
2021/01/18 02:03:08;;;;;;;135.40;51.97;;;;;;;-10.79;100.00;99502.19;2071960;28;20231;-81
2021/01/18 02:04:09;;;;;;;154.35;55.35;;;;;;;-10.92;100.00;99492.28;2073150;28;20314;-81
2021/01/18 02:05:14;;;;;;;133.20;53.80;;;;;;;-10.87;100.00;99511.47;2077259;28;20561;-81
2021/01/18 02:06:16;;;;;;;144.45;51.85;;;;;;;-10.86;100.00;99495.06;2080910;28;20310;-81
2021/01/18 02:07:21;;;;;;;136.50;52.95;;;;;;;-10.86;100.00;99518.28;2080179;28;20250;-81
2021/01/18 02:08:22;;;;;;;144.05;51.53;;;;;;;-10.82;100.00;99505.09;2079712;28;20720;-80
2021/01/18 02:09:24;;;;;;;151.18;55.05;;;;;;;-10.95;100.00;99483.06;2080582;28;20580;-80
2021/01/18 02:10:27;;;;;;;148.23;54.22;;;;;;;-10.89;100.00;99497.94;2080712;28;20233;-82
2021/01/18 02:11:28;;;;;;;137.18;51.03;;;;;;;-10.91;100.00;99506.78;2079916;28;20219;-81
2021/01/18 02:12:29;;;;;;;138.80;50.47;;;;;;;-10.94;100.00;99509.66;2079845;28;20243;-81
2021/01/18 02:13:42;;;;;;;132.70;51.85;;;;;;;-11.07;100.00;99481.66;2096242;28;20535;-81
2021/01/18 02:14:51;;;;;;;138.30;52.65;;;;;;;-10.95;100.00;99497.69;2084960;28;20222;-81
2021/01/18 02:15:59;;;;;;;141.75;50.75;;;;;;;-10.88;100.00;99509.03;2066344;28;20248;-80
2021/01/18 02:17:03;;;;;;;129.27;48.72;;;;;;;-10.92;100.00;99485.34;2065222;28;20221;-81
2021/01/18 02:18:23;;;;;;;129.45;49.80;;;;;;;-10.85;100.00;99490.72;2071895;28;20227;-81
2021/01/18 02:20:00;;;;;;;122.60;47.15;;;;;;;-10.91;100.00;99494.69;2079183;28;20234;-81
2021/01/18 02:21:39;;;;;;;141.57;49.40;;;;;;;-10.95;100.00;99492.56;2072920;28;20220;-80
2021/01/18 02:23:19;;;;;;;124.35;47.92;;;;;;;-11.00;100.00;99495.59;2090361;28;20313;-80
2021/01/18 02:24:51;;;;;;;125.65;47.60;;;;;;;-11.02;100.00;99487.19;2082237;28;20634;-81
2021/01/18 02:25:55;;;;;;;121.28;45.80;;;;;;;-11.12;100.00;99471.81;2070659;28;20323;-81
2021/01/18 02:27:16;;;;;;;141.25;52.25;;;;;;;-11.18;100.00;99462.09;2071864;28;20216;-80
2021/01/18 02:28:32;;;;;;;148.13;49.13;;;;;;;-10.97;100.00;99489.31;2074077;28;20232;-81
2021/01/18 02:29:40;;;;;;;128.48;49.25;;;;;;;-11.09;100.00;99478.44;2079789;28;20227;-81
2021/01/18 02:31:03;;;;;;;129.75;52.90;;;;;;;-11.03;100.00;99485.59;2080218;28;20223;-80
2021/01/18 02:32:30;;;;;;;127.55;48.53;;;;;;;-11.03;100.00;99488.16;2080360;28;20307;-81
2021/01/18 02:33:50;;;;;;;126.32;50.08;;;;;;;-11.12;100.00;99466.66;2069085;28;20709;-81
2021/01/18 02:35:18;;;;;;;132.70;47.85;;;;;;;-11.03;100.00;99484.75;2073811;28;20216;-81
2021/01/18 02:36:28;;;;;;;135.38;49.70;;;;;;;-11.05;100.00;99482.31;2050315;28;20628;-81
2021/01/18 02:37:51;;;;;;;149.38;51.08;;;;;;;-11.02;100.00;99486.41;2069136;28;20220;-81
2021/01/18 02:39:03;;;;;;;146.57;50.13;;;;;;;-11.02;100.00;99486.41;2090049;28;20250;-80
2021/01/18 02:40:08;;;;;;;132.05;50.45;;;;;;;-11.07;100.00;99476.50;2086306;28;20305;-81
2021/01/18 02:41:16;;;;;;;127.90;50.53;;;;;;;-10.98;100.00;99492.84;2079167;28;20357;-80
2021/01/18 02:42:21;;;;;;;148.75;54.20;;;;;;;-11.03;100.00;99490.75;2072382;28;20227;-81
2021/01/18 02:43:26;;;;;;;135.10;50.92;;;;;;;-10.98;100.00;99483.34;2088217;28;20238;-80
2021/01/18 02:44:28;;;;;;;141.20;50.50;;;;;;;-11.03;100.00;99472.72;2087653;28;20309;-81
2021/01/18 02:45:30;;;;;;;140.55;53.67;;;;;;;-11.01;100.00;99488.00;2071707;28;20227;-81
2021/01/18 02:46:34;;;;;;;143.45;51.72;;;;;;;-10.95;100.00;99483.06;2071763;28;20252;-81
2021/01/18 02:47:35;;;;;;;133.90;49.97;;;;;;;-11.00;100.00;99477.56;2079772;28;20664;-81
2021/01/18 02:48:38;;;;;;;133.15;50.63;;;;;;;-11.21;100.00;99464.13;2079769;28;20318;-81
2021/01/18 02:49:39;;;;;;;122.65;48.30;;;;;;;-11.18;100.00;99462.09;2079006;28;20251;-81
2021/01/18 02:50:41;;;;;;;140.57;51.67;;;;;;;-11.12;100.00;99468.41;2071592;28;20656;-81
2021/01/18 02:51:46;;;;;;;144.00;51.30;;;;;;;-11.11;100.00;99480.34;2079568;28;20251;-81
2021/01/18 02:52:49;;;;;;;153.02;50.17;;;;;;;-11.25;100.00;99465.41;2080520;28;20253;-81
2021/01/18 02:54:00;;;;;;;137.07;51.83;;;;;;;-11.12;100.00;99483.88;2079634;28;20361;-81
2021/01/18 02:55:01;;;;;;;134.68;50.75;;;;;;;-11.07;100.00;99486.00;2072494;28;20307;-81
2021/01/18 02:56:02;;;;;;;139.82;53.45;;;;;;;-11.17;100.00;99468.06;2079589;28;20254;-81
2021/01/18 02:57:05;;;;;;;148.15;52.35;;;;;;;-11.14;100.00;99484.00;2079587;28;20234;-81
2021/01/18 02:58:10;;;;;;;137.18;51.58;;;;;;;-11.22;100.00;99471.06;2079876;28;20230;-81
2021/01/18 02:59:12;;;;;;;125.97;49.85;;;;;;;-11.10;100.00;99483.75;2079077;28;20223;-81
2021/01/18 03:00:16;;;;;;;136.75;50.03;;;;;;;-11.08;100.00;99480.06;2079778;28;20219;-81
2021/01/18 03:01:28;;;;;;;146.80;50.83;;;;;;;-11.14;100.00;99480.63;2080237;28;20235;-82
2021/01/18 03:02:38;;;;;;;142.68;52.05;;;;;;;-11.05;100.00;99479.75;2079089;28;20224;-81
2021/01/18 03:03:48;;;;;;;135.82;47.55;;;;;;;-11.14;100.00;99463.41;2070126;28;20311;-81
2021/01/18 03:05:09;;;;;;;146.15;49.90;;;;;;;-11.16;100.00;99451.66;2072651;28;20243;-81
2021/01/18 03:06:16;;;;;;;145.13;49.30;;;;;;;-11.06;100.00;99470.41;2057004;28;20224;-81
2021/01/18 03:07:24;;;;;;;139.15;49.38;;;;;;;-11.19;100.00;99464.81;2077991;28;20223;-82
2021/01/18 03:08:29;;;;;;;139.15;51.92;;;;;;;-11.10;100.00;99478.59;2079826;28;20230;-81
2021/01/18 03:09:36;;;;;;;130.27;49.50;;;;;;;-11.30;100.00;99452.16;2079355;28;20219;-81
2021/01/18 03:10:40;;;;;;;128.02;49.40;;;;;;;-11.03;100.00;99485.59;2079303;28;20698;-81
2021/01/18 03:11:43;;;;;;;152.80;52.40;;;;;;;-11.05;100.00;99481.50;2079550;28;20231;-81
2021/01/18 03:12:49;;;;;;;125.43;47.25;;;;;;;-11.04;100.00;99483.13;2071175;28;20230;-81
2021/01/18 03:13:56;;;;;;;141.02;52.67;;;;;;;-11.21;100.00;99466.72;2071982;28;20293;-81
2021/01/18 03:15:00;;;;;;;137.40;48.08;;;;;;;-11.06;100.00;99478.13;2071920;28;20292;-81
2021/01/18 03:16:04;;;;;;;136.38;48.35;;;;;;;-11.02;100.00;99476.91;2079683;28;20749;-81
2021/01/18 03:17:06;;;;;;;139.80;47.92;;;;;;;-11.16;100.00;99467.91;2080253;28;20219;-81
2021/01/18 03:18:11;;;;;;;138.77;49.95;;;;;;;-11.07;100.00;99481.66;2077072;28;20302;-81
2021/01/18 03:19:12;;;;;;;139.52;49.60;;;;;;;-11.12;100.00;99470.97;2071740;28;20327;-81
2021/01/18 03:20:14;;;;;;;145.48;52.13;;;;;;;-11.11;100.00;99480.34;2079511;28;20218;-81
2021/01/18 03:21:16;;;;;;;150.73;53.75;;;;;;;-11.20;100.00;99463.22;2080225;28;20678;-81
2021/01/18 03:22:24;;;;;;;137.80;50.78;;;;;;;-11.19;100.00;99469.97;2080298;28;20350;-81
2021/01/18 03:23:25;;;;;;;150.30;53.20;;;;;;;-11.14;100.00;99470.31;2095397;28;20226;-81
2021/01/18 03:24:26;;;;;;;123.28;47.83;;;;;;;-11.12;100.00;99470.97;2087527;28;20227;-81
2021/01/18 03:25:27;;;;;;;146.43;53.13;;;;;;;-11.22;100.00;99455.59;2079609;28;20238;-81
2021/01/18 03:26:28;;;;;;;141.43;50.03;;;;;;;-11.11;100.00;99480.34;2080169;28;20223;-81
2021/01/18 03:27:30;;;;;;;136.03;51.93;;;;;;;-11.21;100.00;99462.38;2080528;28;20220;-81
2021/01/18 03:28:30;;;;;;;136.57;50.10;;;;;;;-11.18;100.00;99467.25;2080461;28;20315;-81
2021/01/18 03:29:32;;;;;;;142.43;50.70;;;;;;;-11.25;100.00;99462.84;2080268;28;20262;-81
2021/01/18 03:30:33;;;;;;;134.52;50.65;;;;;;;-11.25;100.00;99470.56;2080176;28;20280;-82
2021/01/18 03:31:34;;;;;;;141.13;51.30;;;;;;;-11.26;100.00;99468.94;2080185;28;20227;-81
2021/01/18 03:32:35;;;;;;;138.43;50.67;;;;;;;-11.37;100.00;99451.13;2080235;28;20243;-81
2021/01/18 03:33:36;;;;;;;154.53;50.50;;;;;;;-11.26;100.00;99469.75;2079672;28;20227;-81
2021/01/18 03:34:37;;;;;;;148.48;51.28;;;;;;;-11.26;100.00;99474.91;2070899;28;20348;-80
2021/01/18 03:35:38;;;;;;;134.27;50.00;;;;;;;-11.20;100.00;99474.31;2079658;28;20230;-80
2021/01/18 03:36:39;;;;;;;138.63;49.15;;;;;;;-11.09;100.00;99475.88;2080090;28;20305;-80
2021/01/18 03:37:41;;;;;;;146.00;51.43;;;;;;;-11.09;100.00;99478.44;2079277;28;20227;-81
2021/01/18 03:38:43;;;;;;;143.82;50.53;;;;;;;-11.16;100.00;99470.47;2071612;28;20749;-81
2021/01/18 03:39:43;;;;;;;156.38;54.67;;;;;;;-11.19;100.00;99464.81;2079469;28;20298;-81
2021/01/18 03:40:45;;;;;;;162.37;53.67;;;;;;;-11.15;100.00;99479.81;2079544;28;20294;-81
2021/01/18 03:41:46;;;;;;;142.77;51.35;;;;;;;-11.06;100.00;99470.41;2079384;28;20231;-81
2021/01/18 03:42:53;;;;;;;147.13;54.88;;;;;;;-11.15;100.00;99461.00;2087895;28;20264;-80
2021/01/18 03:43:54;;;;;;;145.00;53.47;;;;;;;-11.10;100.00;99463.13;2076909;28;20230;-81
2021/01/18 03:44:55;;;;;;;149.20;55.47;;;;;;;-11.13;100.00;99475.31;2079548;28;20227;-81
2021/01/18 03:45:56;;;;;;;156.68;54.22;;;;;;;-11.06;100.00;99472.97;2079290;28;20737;-80
2021/01/18 03:46:58;;;;;;;146.17;53.37;;;;;;;-11.13;100.00;99479.66;2079309;28;20596;-80
2021/01/18 03:47:59;;;;;;;145.48;52.85;;;;;;;-11.25;100.00;99452.53;2079530;28;20586;-80
2021/01/18 03:49:00;;;;;;;152.07;55.40;;;;;;;-11.17;100.00;99473.22;2071088;28;20677;-80
2021/01/18 03:50:01;;;;;;;136.85;55.90;;;;;;;-11.21;100.00;99475.25;2071224;28;20662;-81
2021/01/18 03:51:02;;;;;;;138.10;51.58;;;;;;;-11.16;100.00;99472.25;2072961;28;20231;-80
2021/01/18 03:52:03;;;;;;;147.70;52.45;;;;;;;-11.08;100.00;99477.47;2081156;28;20302;-81
2021/01/18 03:53:06;;;;;;;152.98;54.22;;;;;;;-11.19;100.00;99459.69;2080868;28;20254;-80
2021/01/18 03:54:07;;;;;;;145.38;54.63;;;;;;;-11.15;100.00;99482.41;2080457;28;20250;-80
2021/01/18 03:55:10;;;;;;;155.60;54.03;;;;;;;-11.10;100.00;99479.41;2080640;28;20231;-80
2021/01/18 03:56:10;;;;;;;138.43;51.65;;;;;;;-11.11;100.00;99475.22;2080614;28;20740;-80
2021/01/18 03:57:12;;;;;;;138.13;54.60;;;;;;;-11.01;100.00;99477.72;2072682;28;22986;-80
2021/01/18 03:58:13;;;;;;;150.05;52.67;;;;;;;-11.10;100.00;99466.53;2072885;28;20266;-81
2021/01/18 03:59:14;;;;;;;146.38;50.78;;;;;;;-11.10;100.00;99484.56;2081121;28;20322;-80
2021/01/18 04:00:18;;;;;;;138.95;50.53;;;;;;;-11.14;100.00;99483.22;2081745;28;20281;-81
2021/01/18 04:01:19;;;;;;;155.48;53.95;;;;;;;-11.13;100.00;99479.66;2080813;28;20233;-81
2021/01/18 04:02:20;;;;;;;136.67;51.23;;;;;;;-11.18;100.00;99467.25;2081103;28;20226;-80
2021/01/18 04:03:21;;;;;;;151.80;52.00;;;;;;;-11.10;100.00;99474.25;2081764;28;20230;-80
2021/01/18 04:04:22;;;;;;;152.60;52.17;;;;;;;-11.07;100.00;99483.44;2081705;28;20306;-80
2021/01/18 04:05:24;;;;;;;146.67;53.53;;;;;;;-11.10;100.00;99474.25;2081625;28;20223;-80
2021/01/18 04:06:35;;;;;;;136.82;49.97;;;;;;;-11.03;100.00;99475.28;2080860;28;20250;-80
2021/01/18 04:07:37;;;;;;;141.85;51.30;;;;;;;-11.16;100.00;99465.31;2080884;28;20635;-80
2021/01/18 04:08:39;;;;;;;144.60;52.70;;;;;;;-11.13;100.00;99464.22;2074014;28;20633;-80
2021/01/18 04:09:40;;;;;;;145.18;51.40;;;;;;;-11.13;100.00;99475.31;2072595;28;20307;-80
2021/01/18 04:10:41;;;;;;;129.63;49.75;;;;;;;-11.20;100.00;99464.03;2078171;28;20238;-80
2021/01/18 04:11:42;;;;;;;131.20;51.03;;;;;;;-11.12;100.00;99470.97;2080741;28;20231;-80
2021/01/18 04:12:44;;;;;;;143.13;52.20;;;;;;;-11.22;100.00;99457.38;2080836;28;20305;-80
2021/01/18 04:13:45;;;;;;;139.65;53.38;;;;;;;-11.13;100.00;99474.53;2080404;28;20321;-80
2021/01/18 04:14:46;;;;;;;146.55;53.33;;;;;;;-11.14;100.00;99472.91;2081005;28;20315;-80
2021/01/18 04:15:47;;;;;;;136.73;51.73;;;;;;;-11.13;100.00;99475.31;2080768;28;20266;-80
2021/01/18 04:16:48;;;;;;;141.70;49.78;;;;;;;-11.27;100.00;99444.97;2080714;28;20231;-80
2021/01/18 04:17:51;;;;;;;141.50;52.83;;;;;;;-11.14;100.00;99467.75;2081906;28;20257;-80
2021/01/18 04:18:52;;;;;;;140.70;50.72;;;;;;;-11.19;100.00;99465.63;2080311;28;20270;-81
2021/01/18 04:19:53;;;;;;;136.83;50.60;;;;;;;-11.19;100.00;99445.03;2081035;28;20231;-80
2021/01/18 04:20:54;;;;;;;136.73;49.42;;;;;;;-11.09;100.00;99462.19;2080501;28;20227;-80
2021/01/18 04:21:56;;;;;;;136.00;50.75;;;;;;;-11.17;100.00;99452.59;2080766;28;20227;-79
2021/01/18 04:22:58;;;;;;;140.57;50.25;;;;;;;-11.09;100.00;99455.25;2072919;28;20228;-80
2021/01/18 04:24:00;;;;;;;149.90;50.88;;;;;;;-11.17;100.00;99457.75;2080783;28;20231;-80
2021/01/18 04:25:02;;;;;;;127.95;48.33;;;;;;;-11.14;100.00;99447.97;2081520;28;20227;-81
2021/01/18 04:26:03;;;;;;;136.68;48.15;;;;;;;-11.10;100.00;99450.25;2080554;28;20306;-80
2021/01/18 04:27:07;;;;;;;123.67;48.90;;;;;;;-11.10;100.00;99448.50;2081060;28;20226;-80
2021/01/18 04:28:08;;;;;;;111.88;46.63;;;;;;;-11.01;100.00;99446.78;2080594;28;20310;-80
2021/01/18 04:29:09;;;;;;;133.13;49.20;;;;;;;-11.05;100.00;99448.84;2081546;28;20287;-81
2021/01/18 04:30:11;;;;;;;143.32;49.92;;;;;;;-11.10;100.00;99448.50;2080656;28;20293;-80
2021/01/18 04:31:12;;;;;;;135.30;48.85;;;;;;;-11.07;100.00;99443.03;2080668;28;20323;-80
2021/01/18 04:32:13;;;;;;;108.15;46.35;;;;;;;-11.06;100.00;99449.00;2080788;28;20314;-80
2021/01/18 04:33:14;;;;;;;115.37;46.07;;;;;;;-11.07;100.00;99445.59;2081067;28;20223;-80
2021/01/18 04:34:15;;;;;;;125.90;48.92;;;;;;;-11.26;100.00;99423.41;2080710;28;20306;-81
2021/01/18 04:35:17;;;;;;;123.23;47.10;;;;;;;-11.12;100.00;99447.81;2081480;28;20219;-81
2021/01/18 04:36:18;;;;;;;133.90;50.28;;;;;;;-11.18;100.00;99446.66;2081584;28;20219;-81
2021/01/18 04:37:19;;;;;;;128.00;48.20;;;;;;;-11.22;100.00;99453.03;2080613;28;20796;-81
2021/01/18 04:38:20;;;;;;;134.70;49.40;;;;;;;-11.20;100.00;99447.75;2081031;28;20713;-80
2021/01/18 04:39:22;;;;;;;132.18;50.85;;;;;;;-11.19;100.00;99439.88;2080682;28;20758;-81
2021/01/18 04:40:25;;;;;;;130.77;50.67;;;;;;;-11.23;100.00;99437.72;2080793;28;20229;-80
2021/01/18 04:41:26;;;;;;;130.32;50.22;;;;;;;-11.23;100.00;99442.88;2081140;28;20235;-81
2021/01/18 04:42:28;;;;;;;115.95;47.85;;;;;;;-11.19;100.00;99431.34;2080644;28;20357;-80
2021/01/18 04:43:29;;;;;;;139.55;51.88;;;;;;;-11.21;100.00;99431.47;2080394;28;20223;-80